sensor_id;sensor_type;location;lat;lon;timestamp;temperature;humidity
54898;DHT22;40800;52.704;6.398;2024-03-07T00:00:12;5.10;99.90
54898;DHT22;40800;52.704;6.398;2024-03-07T00:02:45;4.90;99.90
54898;DHT22;40800;52.704;6.398;2024-03-07T00:05:11;5.30;99.90
54898;DHT22;40800;52.704;6.398;2024-03-07T00:07:40;4.90;1.00
54898;DHT22;40800;52.704;6.398;2024-03-07T00:10:06;5.30;1.00
54898;DHT22;40800;52.704;6.398;2024-03-07T00:12:36;5.20;1.00
54898;DHT22;40800;52.704;6.398;2024-03-07T00:15:03;5.00;16.90
54898;DHT22;40800;52.704;6.398;2024-03-07T00:17:28;5.00;54.40
54898;DHT22;40800;52.704;6.398;2024-03-07T00:19:54;5.40;61.90
54898;DHT22;40800;52.704;6.398;2024-03-07T00:22:20;5.40;99.90
54898;DHT22;40800;52.704;6.398;2024-03-07T00:24:46;5.00;99.90
54898;DHT22;40800;52.704;6.398;2024-03-07T00:27:13;5.30;99.90
54898;DHT22;40800;52.704;6.398;2024-03-07T00:29:40;5.20;99.90
54898;DHT22;40800;52.704;6.398;2024-03-07T00:32:06;5.20;99.90
54898;DHT22;40800;52.704;6.398;2024-03-07T00:34:32;4.70;99.90
54898;DHT22;40800;52.704;6.398;2024-03-07T00:36:59;4.80;99.90
54898;DHT22;40800;52.704;6.398;2024-03-07T00:39:25;4.80;99.90
54898;DHT22;40800;52.704;6.398;2024-03-07T00:41:51;4.80;99.90
54898;DHT22;40800;52.704;6.398;2024-03-07T00:44:17;4.70;1.00
54898;DHT22;40800;52.704;6.398;2024-03-07T00:46:42;5.00;1.00
54898;DHT22;40800;52.704;6.398;2024-03-07T00:49:08;4.90;1.00
54898;DHT22;40800;52.704;6.398;2024-03-07T00:51:34;4.80;1.00
54898;DHT22;40800;52.704;6.398;2024-03-07T00:54:00;4.70;1.00
54898;DHT22;40800;52.704;6.398;2024-03-07T00:56:26;4.60;22.80
54898;DHT22;40800;52.704;6.398;2024-03-07T00:58:52;5.10;99.90
54898;DHT22;40800;52.704;6.398;2024-03-07T01:01:18;4.70;99.90
54898;DHT22;40800;52.704;6.398;2024-03-07T01:03:46;4.90;99.90
54898;DHT22;40800;52.704;6.398;2024-03-07T01:06:12;4.70;99.90
54898;DHT22;40800;52.704;6.398;2024-03-07T01:08:38;4.70;99.90
54898;DHT22;40800;52.704;6.398;2024-03-07T01:11:05;5.20;99.90
54898;DHT22;40800;52.704;6.398;2024-03-07T01:13:39;5.20;99.90
54898;DHT22;40800;52.704;6.398;2024-03-07T01:16:06;5.20;99.90
54898;DHT22;40800;52.704;6.398;2024-03-07T01:18:32;4.70;99.90
54898;DHT22;40800;52.704;6.398;2024-03-07T01:21:04;5.00;99.90
54898;DHT22;40800;52.704;6.398;2024-03-07T01:23:30;5.30;99.90
54898;DHT22;40800;52.704;6.398;2024-03-07T01:25:57;5.50;1.00
54898;DHT22;40800;52.704;6.398;2024-03-07T01:28:24;5.50;99.90
54898;DHT22;40800;52.704;6.398;2024-03-07T01:30:50;5.60;99.90
54898;DHT22;40800;52.704;6.398;2024-03-07T01:33:16;5.70;99.90
54898;DHT22;40800;52.704;6.398;2024-03-07T01:35:42;5.20;99.90
54898;DHT22;40800;52.704;6.398;2024-03-07T01:38:07;5.60;99.90
54898;DHT22;40800;52.704;6.398;2024-03-07T01:40:36;5.50;1.00
54898;DHT22;40800;52.704;6.398;2024-03-07T01:43:02;5.90;1.00
54898;DHT22;40800;52.704;6.398;2024-03-07T01:45:28;5.90;99.90
54898;DHT22;40800;52.704;6.398;2024-03-07T01:47:54;6.00;99.90
54898;DHT22;40800;52.704;6.398;2024-03-07T01:50:21;5.80;99.90
54898;DHT22;40800;52.704;6.398;2024-03-07T01:52:47;6.00;99.90
54898;DHT22;40800;52.704;6.398;2024-03-07T01:55:16;6.30;99.90
54898;DHT22;40800;52.704;6.398;2024-03-07T01:57:42;6.00;99.90
54898;DHT22;40800;52.704;6.398;2024-03-07T02:00:08;5.50;99.90
54898;DHT22;40800;52.704;6.398;2024-03-07T02:02:34;5.80;99.90
54898;DHT22;40800;52.704;6.398;2024-03-07T02:05:01;5.80;99.90
54898;DHT22;40800;52.704;6.398;2024-03-07T02:07:26;5.80;99.90
54898;DHT22;40800;52.704;6.398;2024-03-07T02:10:05;5.50;99.90
54898;DHT22;40800;52.704;6.398;2024-03-07T02:12:31;5.20;99.90
54898;DHT22;40800;52.704;6.398;2024-03-07T02:14:57;5.20;99.90
54898;DHT22;40800;52.704;6.398;2024-03-07T02:17:26;5.40;99.90
54898;DHT22;40800;52.704;6.398;2024-03-07T02:19:52;5.30;99.90
54898;DHT22;40800;52.704;6.398;2024-03-07T02:22:19;5.40;99.90
54898;DHT22;40800;52.704;6.398;2024-03-07T02:24:45;5.30;99.90
54898;DHT22;40800;52.704;6.398;2024-03-07T02:27:11;5.40;99.90
54898;DHT22;40800;52.704;6.398;2024-03-07T02:29:37;5.10;99.90
54898;DHT22;40800;52.704;6.398;2024-03-07T02:32:03;5.60;99.90
54898;DHT22;40800;52.704;6.398;2024-03-07T02:34:29;5.20;99.90
54898;DHT22;40800;52.704;6.398;2024-03-07T02:36:55;5.20;99.90
54898;DHT22;40800;52.704;6.398;2024-03-07T02:39:21;5.50;99.90
54898;DHT22;40800;52.704;6.398;2024-03-07T02:41:47;5.10;99.90
54898;DHT22;40800;52.704;6.398;2024-03-07T02:44:16;5.40;99.10
54898;DHT22;40800;52.704;6.398;2024-03-07T02:46:42;5.50;99.60
54898;DHT22;40800;52.704;6.398;2024-03-07T02:49:08;5.40;13.00
54898;DHT22;40800;52.704;6.398;2024-03-07T02:51:35;5.10;32.10
54898;DHT22;40800;52.704;6.398;2024-03-07T02:54:01;4.90;20.10
54898;DHT22;40800;52.704;6.398;2024-03-07T02:56:28;5.10;24.40
54898;DHT22;40800;52.704;6.398;2024-03-07T02:58:54;5.30;25.90
54898;DHT22;40800;52.704;6.398;2024-03-07T03:01:19;5.30;67.80
54898;DHT22;40800;52.704;6.398;2024-03-07T03:03:45;4.90;34.40
54898;DHT22;40800;52.704;6.398;2024-03-07T03:06:11;4.90;1.00
54898;DHT22;40800;52.704;6.398;2024-03-07T03:08:37;4.90;1.00
54898;DHT22;40800;52.704;6.398;2024-03-07T03:11:03;4.80;1.00
54898;DHT22;40800;52.704;6.398;2024-03-07T03:13:29;5.10;1.00
54898;DHT22;40800;52.704;6.398;2024-03-07T03:15:55;4.80;1.00
54898;DHT22;40800;52.704;6.398;2024-03-07T03:18:22;4.90;1.00
54898;DHT22;40800;52.704;6.398;2024-03-07T03:20:48;4.80;1.00
54898;DHT22;40800;52.704;6.398;2024-03-07T03:23:14;4.70;1.00
54898;DHT22;40800;52.704;6.398;2024-03-07T03:25:40;4.40;1.00
54898;DHT22;40800;52.704;6.398;2024-03-07T03:28:06;4.40;91.50
54898;DHT22;40800;52.704;6.398;2024-03-07T03:30:38;4.70;13.40
54898;DHT22;40800;52.704;6.398;2024-03-07T03:33:05;4.40;23.10
54898;DHT22;40800;52.704;6.398;2024-03-07T03:35:31;4.30;69.70
54898;DHT22;40800;52.704;6.398;2024-03-07T03:37:58;4.50;1.00
54898;DHT22;40800;52.704;6.398;2024-03-07T03:40:23;4.60;82.50
54898;DHT22;40800;52.704;6.398;2024-03-07T03:42:49;4.50;80.30
54898;DHT22;40800;52.704;6.398;2024-03-07T03:45:15;4.20;82.60
54898;DHT22;40800;52.704;6.398;2024-03-07T03:47:41;5.90;76.10
54898;DHT22;40800;52.704;6.398;2024-03-07T03:50:10;4.40;18.20
54898;DHT22;40800;52.704;6.398;2024-03-07T03:52:36;4.30;4.90
54898;DHT22;40800;52.704;6.398;2024-03-07T03:55:03;4.20;41.50
54898;DHT22;40800;52.704;6.398;2024-03-07T03:57:33;4.10;14.20
54898;DHT22;40800;52.704;6.398;2024-03-07T03:59:59;4.40;99.90
54898;DHT22;40800;52.704;6.398;2024-03-07T04:02:25;4.30;70.50
54898;DHT22;40800;52.704;6.398;2024-03-07T04:04:52;4.00;58.10
54898;DHT22;40800;52.704;6.398;2024-03-07T04:07:18;4.30;1.00
54898;DHT22;40800;52.704;6.398;2024-03-07T04:09:45;4.10;3.30
54898;DHT22;40800;52.704;6.398;2024-03-07T04:12:11;4.10;1.00
54898;DHT22;40800;52.704;6.398;2024-03-07T04:14:40;4.00;1.00
54898;DHT22;40800;52.704;6.398;2024-03-07T04:17:07;4.10;36.20
54898;DHT22;40800;52.704;6.398;2024-03-07T04:19:36;3.70;1.00
54898;DHT22;40800;52.704;6.398;2024-03-07T04:22:03;3.80;1.00
54898;DHT22;40800;52.704;6.398;2024-03-07T04:24:33;3.80;10.20
54898;DHT22;40800;52.704;6.398;2024-03-07T04:27:00;3.60;26.70
54898;DHT22;40800;52.704;6.398;2024-03-07T04:29:26;3.90;99.90
54898;DHT22;40800;52.704;6.398;2024-03-07T04:31:52;3.70;11.50
54898;DHT22;40800;52.704;6.398;2024-03-07T04:34:18;3.50;20.60
54898;DHT22;40800;52.704;6.398;2024-03-07T04:36:44;3.50;21.20
54898;DHT22;40800;52.704;6.398;2024-03-07T04:39:10;3.80;1.00
54898;DHT22;40800;52.704;6.398;2024-03-07T04:41:53;3.80;63.50
54898;DHT22;40800;52.704;6.398;2024-03-07T04:44:20;3.70;50.20
54898;DHT22;40800;52.704;6.398;2024-03-07T04:46:50;3.80;76.20
54898;DHT22;40800;52.704;6.398;2024-03-07T04:49:21;4.10;99.90
54898;DHT22;40800;52.704;6.398;2024-03-07T04:51:49;3.80;58.40
54898;DHT22;40800;52.704;6.398;2024-03-07T04:54:15;3.60;88.30
54898;DHT22;40800;52.704;6.398;2024-03-07T04:56:40;3.60;29.30
54898;DHT22;40800;52.704;6.398;2024-03-07T04:59:06;3.60;99.90
54898;DHT22;40800;52.704;6.398;2024-03-07T05:01:32;3.30;94.40
54898;DHT22;40800;52.704;6.398;2024-03-07T05:03:57;3.30;99.90
54898;DHT22;40800;52.704;6.398;2024-03-07T05:06:23;3.60;99.90
54898;DHT22;40800;52.704;6.398;2024-03-07T05:08:49;3.20;81.80
54898;DHT22;40800;52.704;6.398;2024-03-07T05:11:14;3.50;91.20
54898;DHT22;40800;52.704;6.398;2024-03-07T05:13:41;3.10;29.30
54898;DHT22;40800;52.704;6.398;2024-03-07T05:16:08;3.20;31.60
54898;DHT22;40800;52.704;6.398;2024-03-07T05:18:33;3.40;46.40
54898;DHT22;40800;52.704;6.398;2024-03-07T05:20:59;3.20;99.90
54898;DHT22;40800;52.704;6.398;2024-03-07T05:23:44;3.30;99.90
54898;DHT22;40800;52.704;6.398;2024-03-07T05:26:10;3.30;99.90
54898;DHT22;40800;52.704;6.398;2024-03-07T05:28:36;3.20;99.90
54898;DHT22;40800;52.704;6.398;2024-03-07T05:31:02;3.20;99.90
54898;DHT22;40800;52.704;6.398;2024-03-07T05:33:29;3.00;99.90
54898;DHT22;40800;52.704;6.398;2024-03-07T05:35:55;3.20;99.90
54898;DHT22;40800;52.704;6.398;2024-03-07T05:38:39;2.70;99.90
54898;DHT22;40800;52.704;6.398;2024-03-07T05:41:05;2.80;99.90
54898;DHT22;40800;52.704;6.398;2024-03-07T05:43:30;3.10;99.90
54898;DHT22;40800;52.704;6.398;2024-03-07T05:45:57;2.90;99.90
54898;DHT22;40800;52.704;6.398;2024-03-07T05:48:26;2.90;99.90
54898;DHT22;40800;52.704;6.398;2024-03-07T05:50:51;2.60;99.90
54898;DHT22;40800;52.704;6.398;2024-03-07T05:53:18;3.00;99.90
54898;DHT22;40800;52.704;6.398;2024-03-07T05:55:43;2.60;1.00
54898;DHT22;40800;52.704;6.398;2024-03-07T05:58:09;3.00;1.00
54898;DHT22;40800;52.704;6.398;2024-03-07T06:00:35;2.90;1.00
54898;DHT22;40800;52.704;6.398;2024-03-07T06:03:04;2.40;1.00
54898;DHT22;40800;52.704;6.398;2024-03-07T06:05:30;2.90;1.00
54898;DHT22;40800;52.704;6.398;2024-03-07T06:07:56;2.40;1.00
54898;DHT22;40800;52.704;6.398;2024-03-07T06:10:22;2.40;1.00
54898;DHT22;40800;52.704;6.398;2024-03-07T06:12:52;2.80;1.00
54898;DHT22;40800;52.704;6.398;2024-03-07T06:15:18;2.30;1.00
54898;DHT22;40800;52.704;6.398;2024-03-07T06:17:43;2.40;1.00
54898;DHT22;40800;52.704;6.398;2024-03-07T06:20:12;2.60;1.00
54898;DHT22;40800;52.704;6.398;2024-03-07T06:22:48;2.70;44.20
54898;DHT22;40800;52.704;6.398;2024-03-07T06:25:19;2.20;79.30
54898;DHT22;40800;52.704;6.398;2024-03-07T06:27:48;2.30;90.30
54898;DHT22;40800;52.704;6.398;2024-03-07T06:30:18;2.20;99.90
54898;DHT22;40800;52.704;6.398;2024-03-07T06:32:46;2.40;99.90
54898;DHT22;40800;52.704;6.398;2024-03-07T06:35:12;2.70;99.90
54898;DHT22;40800;52.704;6.398;2024-03-07T06:37:37;2.80;99.90
54898;DHT22;40800;52.704;6.398;2024-03-07T06:40:04;2.90;99.90
54898;DHT22;40800;52.704;6.398;2024-03-07T06:42:35;2.70;99.90
54898;DHT22;40800;52.704;6.398;2024-03-07T06:45:04;3.10;99.90
54898;DHT22;40800;52.704;6.398;2024-03-07T06:47:30;2.60;99.90
54898;DHT22;40800;52.704;6.398;2024-03-07T06:49:56;2.90;1.00
54898;DHT22;40800;52.704;6.398;2024-03-07T06:52:21;2.60;1.00
54898;DHT22;40800;52.704;6.398;2024-03-07T06:54:47;2.50;1.00
54898;DHT22;40800;52.704;6.398;2024-03-07T06:57:13;2.70;1.00
54898;DHT22;40800;52.704;6.398;2024-03-07T06:59:38;2.70;1.00
54898;DHT22;40800;52.704;6.398;2024-03-07T07:02:04;3.30;1.00
54898;DHT22;40800;52.704;6.398;2024-03-07T07:04:29;3.20;1.00
54898;DHT22;40800;52.704;6.398;2024-03-07T07:07:07;2.80;1.00
54898;DHT22;40800;52.704;6.398;2024-03-07T07:09:36;3.20;1.00
54898;DHT22;40800;52.704;6.398;2024-03-07T07:12:02;3.10;1.00
54898;DHT22;40800;52.704;6.398;2024-03-07T07:14:28;2.80;1.00
54898;DHT22;40800;52.704;6.398;2024-03-07T07:16:53;3.40;99.00
54898;DHT22;40800;52.704;6.398;2024-03-07T07:19:19;2.80;90.80
54898;DHT22;40800;52.704;6.398;2024-03-07T07:21:45;3.40;99.90
54898;DHT22;40800;52.704;6.398;2024-03-07T07:24:12;3.10;99.90
54898;DHT22;40800;52.704;6.398;2024-03-07T07:26:38;3.10;99.90
54898;DHT22;40800;52.704;6.398;2024-03-07T07:29:04;3.80;99.90
54898;DHT22;40800;52.704;6.398;2024-03-07T07:31:30;3.80;99.90
54898;DHT22;40800;52.704;6.398;2024-03-07T07:33:57;3.60;1.00
54898;DHT22;40800;52.704;6.398;2024-03-07T07:36:23;3.90;1.00
54898;DHT22;40800;52.704;6.398;2024-03-07T07:38:49;3.70;1.00
54898;DHT22;40800;52.704;6.398;2024-03-07T07:41:14;4.20;1.00
54898;DHT22;40800;52.704;6.398;2024-03-07T07:43:40;4.30;1.00
54898;DHT22;40800;52.704;6.398;2024-03-07T07:46:07;4.40;1.00
54898;DHT22;40800;52.704;6.398;2024-03-07T07:48:33;4.30;1.00
54898;DHT22;40800;52.704;6.398;2024-03-07T07:50:59;4.50;99.90
54898;DHT22;40800;52.704;6.398;2024-03-07T07:53:25;4.90;99.90
54898;DHT22;40800;52.704;6.398;2024-03-07T07:55:50;4.50;99.90
54898;DHT22;40800;52.704;6.398;2024-03-07T07:58:16;4.50;99.90
54898;DHT22;40800;52.704;6.398;2024-03-07T08:00:42;4.50;99.90
54898;DHT22;40800;52.704;6.398;2024-03-07T08:03:09;4.70;99.90
54898;DHT22;40800;52.704;6.398;2024-03-07T08:05:37;5.30;99.70
54898;DHT22;40800;52.704;6.398;2024-03-07T08:08:03;4.90;97.40
54898;DHT22;40800;52.704;6.398;2024-03-07T08:10:30;5.10;37.80
54898;DHT22;40800;52.704;6.398;2024-03-07T08:13:00;5.50;99.90
54898;DHT22;40800;52.704;6.398;2024-03-07T08:15:27;5.90;1.00
54898;DHT22;40800;52.704;6.398;2024-03-07T08:17:53;5.70;99.90
54898;DHT22;40800;52.704;6.398;2024-03-07T08:20:21;5.90;99.90
54898;DHT22;40800;52.704;6.398;2024-03-07T08:22:48;5.90;99.90
54898;DHT22;40800;52.704;6.398;2024-03-07T08:25:17;6.20;66.40
54898;DHT22;40800;52.704;6.398;2024-03-07T08:27:45;6.40;10.90
54898;DHT22;40800;52.704;6.398;2024-03-07T08:30:12;6.40;1.00
54898;DHT22;40800;52.704;6.398;2024-03-07T08:32:41;6.20;1.00
54898;DHT22;40800;52.704;6.398;2024-03-07T08:35:07;6.30;99.90
54898;DHT22;40800;52.704;6.398;2024-03-07T08:37:54;6.50;99.90
54898;DHT22;40800;52.704;6.398;2024-03-07T08:40:21;6.70;99.90
54898;DHT22;40800;52.704;6.398;2024-03-07T08:42:57;6.70;99.90
54898;DHT22;40800;52.704;6.398;2024-03-07T08:45:24;6.70;99.90
54898;DHT22;40800;52.704;6.398;2024-03-07T08:47:52;6.90;99.90
54898;DHT22;40800;52.704;6.398;2024-03-07T08:50:20;6.90;99.90
54898;DHT22;40800;52.704;6.398;2024-03-07T08:52:47;7.20;1.00
54898;DHT22;40800;52.704;6.398;2024-03-07T08:55:13;7.00;1.00
54898;DHT22;40800;52.704;6.398;2024-03-07T08:57:40;7.30;99.90
54898;DHT22;40800;52.704;6.398;2024-03-07T09:00:07;7.20;99.90
54898;DHT22;40800;52.704;6.398;2024-03-07T09:02:40;7.20;99.90
54898;DHT22;40800;52.704;6.398;2024-03-07T09:05:07;7.10;99.90
54898;DHT22;40800;52.704;6.398;2024-03-07T09:07:35;7.10;99.90
54898;DHT22;40800;52.704;6.398;2024-03-07T09:10:01;7.30;99.90
54898;DHT22;40800;52.704;6.398;2024-03-07T09:12:27;6.90;82.90
54898;DHT22;40800;52.704;6.398;2024-03-07T09:14:53;7.30;99.90
54898;DHT22;40800;52.704;6.398;2024-03-07T09:17:20;7.20;99.90
54898;DHT22;40800;52.704;6.398;2024-03-07T09:19:46;7.10;35.90
54898;DHT22;40800;52.704;6.398;2024-03-07T09:22:11;7.10;1.30
54898;DHT22;40800;52.704;6.398;2024-03-07T09:24:37;7.10;1.00
54898;DHT22;40800;52.704;6.398;2024-03-07T09:27:05;7.00;1.00
54898;DHT22;40800;52.704;6.398;2024-03-07T09:29:31;6.90;1.00
54898;DHT22;40800;52.704;6.398;2024-03-07T09:31:57;7.00;1.00
54898;DHT22;40800;52.704;6.398;2024-03-07T09:34:24;6.90;1.00
54898;DHT22;40800;52.704;6.398;2024-03-07T09:36:51;6.90;99.90
54898;DHT22;40800;52.704;6.398;2024-03-07T09:39:17;6.90;99.90
54898;DHT22;40800;52.704;6.398;2024-03-07T09:41:44;6.70;99.90
54898;DHT22;40800;52.704;6.398;2024-03-07T09:44:12;6.40;99.90
54898;DHT22;40800;52.704;6.398;2024-03-07T09:46:40;6.50;99.90
54898;DHT22;40800;52.704;6.398;2024-03-07T09:49:06;6.60;99.90
54898;DHT22;40800;52.704;6.398;2024-03-07T09:51:35;6.50;99.90
54898;DHT22;40800;52.704;6.398;2024-03-07T09:54:01;6.20;99.90
54898;DHT22;40800;52.704;6.398;2024-03-07T09:56:28;6.20;1.00
54898;DHT22;40800;52.704;6.398;2024-03-07T09:58:57;6.30;1.00
54898;DHT22;40800;52.704;6.398;2024-03-07T10:01:25;6.40;1.00
54898;DHT22;40800;52.704;6.398;2024-03-07T10:03:57;6.90;1.00
54898;DHT22;40800;52.704;6.398;2024-03-07T10:06:23;6.90;99.90
54898;DHT22;40800;52.704;6.398;2024-03-07T10:08:50;6.50;99.90
54898;DHT22;40800;52.704;6.398;2024-03-07T10:11:16;6.50;99.90
54898;DHT22;40800;52.704;6.398;2024-03-07T10:13:42;6.60;99.90
54898;DHT22;40800;52.704;6.398;2024-03-07T10:16:08;6.50;99.90
54898;DHT22;40800;52.704;6.398;2024-03-07T10:18:42;6.50;99.90
54898;DHT22;40800;52.704;6.398;2024-03-07T10:21:08;6.60;99.90
54898;DHT22;40800;52.704;6.398;2024-03-07T10:23:35;6.40;1.00
54898;DHT22;40800;52.704;6.398;2024-03-07T10:26:00;6.70;1.00
54898;DHT22;40800;52.704;6.398;2024-03-07T10:28:29;6.80;1.00
54898;DHT22;40800;52.704;6.398;2024-03-07T10:30:56;6.80;1.00
54898;DHT22;40800;52.704;6.398;2024-03-07T10:33:27;6.90;1.00
54898;DHT22;40800;52.704;6.398;2024-03-07T10:35:52;7.10;44.20
54898;DHT22;40800;52.704;6.398;2024-03-07T10:38:18;7.10;38.00
54898;DHT22;40800;52.704;6.398;2024-03-07T10:40:47;7.30;74.60
54898;DHT22;40800;52.704;6.398;2024-03-07T10:43:13;7.50;36.00
54898;DHT22;40800;52.704;6.398;2024-03-07T10:45:47;7.70;6.30
54898;DHT22;40800;52.704;6.398;2024-03-07T10:48:13;7.70;1.00
54898;DHT22;40800;52.704;6.398;2024-03-07T10:53:53;7.80;99.90
54898;DHT22;40800;52.704;6.398;2024-03-07T10:56:41;7.80;99.90
54898;DHT22;40800;52.704;6.398;2024-03-07T10:59:18;8.30;99.90
54898;DHT22;40800;52.704;6.398;2024-03-07T11:04:23;8.10;99.90
54898;DHT22;40800;52.704;6.398;2024-03-07T11:06:49;8.20;99.90
54898;DHT22;40800;52.704;6.398;2024-03-07T11:09:15;8.30;99.90
54898;DHT22;40800;52.704;6.398;2024-03-07T11:11:48;8.40;99.90
54898;DHT22;40800;52.704;6.398;2024-03-07T11:14:14;8.20;99.90
54898;DHT22;40800;52.704;6.398;2024-03-07T11:16:42;8.20;99.90
54898;DHT22;40800;52.704;6.398;2024-03-07T11:19:24;8.20;99.90
54898;DHT22;40800;52.704;6.398;2024-03-07T11:21:52;8.20;99.90
54898;DHT22;40800;52.704;6.398;2024-03-07T11:24:27;8.20;99.90
54898;DHT22;40800;52.704;6.398;2024-03-07T11:26:58;8.10;99.90
54898;DHT22;40800;52.704;6.398;2024-03-07T11:32:15;8.20;99.90
54898;DHT22;40800;52.704;6.398;2024-03-07T11:34:43;8.20;99.90
54898;DHT22;40800;52.704;6.398;2024-03-07T11:37:19;8.20;99.90
54898;DHT22;40800;52.704;6.398;2024-03-07T11:39:49;8.30;99.90
54898;DHT22;40800;52.704;6.398;2024-03-07T11:42:25;8.50;99.90
54898;DHT22;40800;52.704;6.398;2024-03-07T11:44:52;8.60;99.90
54898;DHT22;40800;52.704;6.398;2024-03-07T11:47:18;9.10;99.90
54898;DHT22;40800;52.704;6.398;2024-03-07T11:49:47;8.80;99.90
54898;DHT22;40800;52.704;6.398;2024-03-07T11:52:17;9.00;99.90
54898;DHT22;40800;52.704;6.398;2024-03-07T11:54:43;9.80;99.90
54898;DHT22;40800;52.704;6.398;2024-03-07T11:57:13;8.90;99.90
54898;DHT22;40800;52.704;6.398;2024-03-07T11:59:42;9.20;99.90
54898;DHT22;40800;52.704;6.398;2024-03-07T12:02:14;9.20;99.90
54898;DHT22;40800;52.704;6.398;2024-03-07T12:04:47;9.10;99.90
54898;DHT22;40800;52.704;6.398;2024-03-07T12:07:14;9.00;97.70
54898;DHT22;40800;52.704;6.398;2024-03-07T12:09:43;9.10;80.60
54898;DHT22;40800;52.704;6.398;2024-03-07T12:12:11;9.00;53.40
54898;DHT22;40800;52.704;6.398;2024-03-07T12:14:38;9.00;75.10
54898;DHT22;40800;52.704;6.398;2024-03-07T12:17:04;8.90;58.80
54898;DHT22;40800;52.704;6.398;2024-03-07T12:19:32;8.90;91.20
54898;DHT22;40800;52.704;6.398;2024-03-07T12:22:00;9.00;70.60
54898;DHT22;40800;52.704;6.398;2024-03-07T12:24:27;9.40;33.60
54898;DHT22;40800;52.704;6.398;2024-03-07T12:26:52;9.00;1.00
54898;DHT22;40800;52.704;6.398;2024-03-07T12:29:25;8.90;1.00
54898;DHT22;40800;52.704;6.398;2024-03-07T12:31:51;8.80;6.90
54898;DHT22;40800;52.704;6.398;2024-03-07T12:34:17;8.90;12.60
54898;DHT22;40800;52.704;6.398;2024-03-07T12:36:43;8.90;13.80
54898;DHT22;40800;52.704;6.398;2024-03-07T12:39:26;8.90;35.70
54898;DHT22;40800;52.704;6.398;2024-03-07T12:41:56;9.00;71.30
54898;DHT22;40800;52.704;6.398;2024-03-07T12:44:22;9.10;35.80
54898;DHT22;40800;52.704;6.398;2024-03-07T12:46:51;9.30;51.50
54898;DHT22;40800;52.704;6.398;2024-03-07T12:49:22;9.10;71.40
54898;DHT22;40800;52.704;6.398;2024-03-07T12:51:53;9.10;51.10
54898;DHT22;40800;52.704;6.398;2024-03-07T12:54:20;9.10;62.40
54898;DHT22;40800;52.704;6.398;2024-03-07T12:56:45;9.40;71.20
54898;DHT22;40800;52.704;6.398;2024-03-07T12:59:11;9.70;98.10
54898;DHT22;40800;52.704;6.398;2024-03-07T13:01:37;9.40;99.10
54898;DHT22;40800;52.704;6.398;2024-03-07T13:04:13;9.80;99.90
54898;DHT22;40800;52.704;6.398;2024-03-07T13:06:39;9.90;79.10
54898;DHT22;40800;52.704;6.398;2024-03-07T13:09:09;10.00;39.80
54898;DHT22;40800;52.704;6.398;2024-03-07T13:11:38;9.90;18.80
54898;DHT22;40800;52.704;6.398;2024-03-07T13:14:07;9.90;1.00
54898;DHT22;40800;52.704;6.398;2024-03-07T13:16:34;9.90;1.00
54898;DHT22;40800;52.704;6.398;2024-03-07T13:18:59;9.80;1.00
54898;DHT22;40800;52.704;6.398;2024-03-07T13:21:25;9.80;1.00
54898;DHT22;40800;52.704;6.398;2024-03-07T13:23:52;9.60;1.00
54898;DHT22;40800;52.704;6.398;2024-03-07T13:26:22;9.50;1.00
54898;DHT22;40800;52.704;6.398;2024-03-07T13:28:53;9.40;1.00
54898;DHT22;40800;52.704;6.398;2024-03-07T13:31:19;9.30;1.00
54898;DHT22;40800;52.704;6.398;2024-03-07T13:33:46;9.30;1.00
54898;DHT22;40800;52.704;6.398;2024-03-07T13:36:12;9.40;1.00
54898;DHT22;40800;52.704;6.398;2024-03-07T13:38:39;9.30;1.00
54898;DHT22;40800;52.704;6.398;2024-03-07T13:41:06;9.20;1.00
54898;DHT22;40800;52.704;6.398;2024-03-07T13:43:31;9.10;1.00
54898;DHT22;40800;52.704;6.398;2024-03-07T13:45:59;9.00;1.00
54898;DHT22;40800;52.704;6.398;2024-03-07T13:48:25;9.10;1.00
54898;DHT22;40800;52.704;6.398;2024-03-07T13:50:51;9.10;1.00
54898;DHT22;40800;52.704;6.398;2024-03-07T13:53:20;9.20;1.00
54898;DHT22;40800;52.704;6.398;2024-03-07T14:20:45;9.20;99.90
54898;DHT22;40800;52.704;6.398;2024-03-07T14:29:16;9.10;99.90
54898;DHT22;40800;52.704;6.398;2024-03-07T14:31:44;9.00;99.90
54898;DHT22;40800;52.704;6.398;2024-03-07T14:37:09;9.10;99.90
54898;DHT22;40800;52.704;6.398;2024-03-07T14:39:36;9.10;99.90
54898;DHT22;40800;52.704;6.398;2024-03-07T14:42:05;9.00;99.90
54898;DHT22;40800;52.704;6.398;2024-03-07T14:44:37;9.00;99.90
54898;DHT22;40800;52.704;6.398;2024-03-07T14:47:06;9.00;99.90
54898;DHT22;40800;52.704;6.398;2024-03-07T14:49:33;9.10;99.90
54898;DHT22;40800;52.704;6.398;2024-03-07T14:51:59;9.00;99.90
54898;DHT22;40800;52.704;6.398;2024-03-07T14:54:26;9.00;99.90
54898;DHT22;40800;52.704;6.398;2024-03-07T14:56:52;9.00;99.90
54898;DHT22;40800;52.704;6.398;2024-03-07T14:59:18;9.00;99.90
54898;DHT22;40800;52.704;6.398;2024-03-07T15:01:44;8.90;99.90
54898;DHT22;40800;52.704;6.398;2024-03-07T15:04:10;8.90;99.90
54898;DHT22;40800;52.704;6.398;2024-03-07T15:06:38;8.90;99.90
54898;DHT22;40800;52.704;6.398;2024-03-07T15:09:04;8.90;99.90
54898;DHT22;40800;52.704;6.398;2024-03-07T15:11:36;8.90;99.90
54898;DHT22;40800;52.704;6.398;2024-03-07T15:14:06;9.40;99.90
54898;DHT22;40800;52.704;6.398;2024-03-07T15:16:37;8.90;99.90
54898;DHT22;40800;52.704;6.398;2024-03-07T15:19:07;8.90;99.90
54898;DHT22;40800;52.704;6.398;2024-03-07T15:21:36;8.90;99.90
54898;DHT22;40800;52.704;6.398;2024-03-07T15:24:06;8.80;99.90
54898;DHT22;40800;52.704;6.398;2024-03-07T15:26:32;8.80;99.90
54898;DHT22;40800;52.704;6.398;2024-03-07T15:28:57;8.70;99.90
54898;DHT22;40800;52.704;6.398;2024-03-07T15:31:25;8.80;99.90
54898;DHT22;40800;52.704;6.398;2024-03-07T15:33:50;8.70;99.90
54898;DHT22;40800;52.704;6.398;2024-03-07T15:36:21;8.80;99.90
54898;DHT22;40800;52.704;6.398;2024-03-07T15:38:48;8.70;99.90
54898;DHT22;40800;52.704;6.398;2024-03-07T15:41:14;8.50;99.90
54898;DHT22;40800;52.704;6.398;2024-03-07T15:43:40;8.60;99.90
54898;DHT22;40800;52.704;6.398;2024-03-07T15:46:13;8.60;99.90
54898;DHT22;40800;52.704;6.398;2024-03-07T15:48:44;8.60;99.90
54898;DHT22;40800;52.704;6.398;2024-03-07T15:51:11;8.60;99.90
54898;DHT22;40800;52.704;6.398;2024-03-07T15:53:37;8.60;99.90
54898;DHT22;40800;52.704;6.398;2024-03-07T15:56:03;8.50;99.90
54898;DHT22;40800;52.704;6.398;2024-03-07T15:58:32;8.60;99.90
54898;DHT22;40800;52.704;6.398;2024-03-07T16:01:01;8.70;99.90
54898;DHT22;40800;52.704;6.398;2024-03-07T16:03:27;8.60;99.90
54898;DHT22;40800;52.704;6.398;2024-03-07T16:05:53;8.60;99.90
54898;DHT22;40800;52.704;6.398;2024-03-07T16:08:19;8.60;99.90
54898;DHT22;40800;52.704;6.398;2024-03-07T16:10:45;8.60;99.90
54898;DHT22;40800;52.704;6.398;2024-03-07T16:13:12;8.60;99.90
54898;DHT22;40800;52.704;6.398;2024-03-07T16:15:40;8.80;99.90
54898;DHT22;40800;52.704;6.398;2024-03-07T16:18:06;8.50;99.90
54898;DHT22;40800;52.704;6.398;2024-03-07T16:20:33;8.60;99.90
54898;DHT22;40800;52.704;6.398;2024-03-07T16:23:00;8.60;99.90
54898;DHT22;40800;52.704;6.398;2024-03-07T16:25:26;8.70;99.90
54898;DHT22;40800;52.704;6.398;2024-03-07T16:27:53;8.70;99.90
54898;DHT22;40800;52.704;6.398;2024-03-07T16:30:22;8.80;99.90
54898;DHT22;40800;52.704;6.398;2024-03-07T16:32:49;8.70;99.90